sensor_id;sensor_type;location;lat;lon;timestamp;pressure;altitude;pressure_sealevel;temperature
77355;BMP280;66422;51.202;19.936;2024-01-15T00:12:05;97347.25;;;1.33
77355;BMP280;66422;51.202;19.936;2024-01-15T00:27:24;97315.04;;;1.34
77355;BMP280;66422;51.202;19.936;2024-01-15T00:42:44;97278.19;;;1.33
77355;BMP280;66422;51.202;19.936;2024-01-15T00:58:04;97273.33;;;1.42
77355;BMP280;66422;51.202;19.936;2024-01-15T01:13:23;97249.98;;;1.47
77355;BMP280;66422;51.202;19.936;2024-01-15T01:28:43;97224.94;;;1.40
77355;BMP280;66422;51.202;19.936;2024-01-15T01:44:03;97205.91;;;1.45
77355;BMP280;66422;51.202;19.936;2024-01-15T01:59:23;97202.39;;;1.48
77355;BMP280;66422;51.202;19.936;2024-01-15T02:14:43;97181.46;;;1.50
77355;BMP280;66422;51.202;19.936;2024-01-15T02:30:04;97154.20;;;1.33
77355;BMP280;66422;51.202;19.936;2024-01-15T02:45:24;97142.10;;;1.23
77355;BMP280;66422;51.202;19.936;2024-01-15T03:00:44;97119.38;;;1.30
77355;BMP280;66422;51.202;19.936;2024-01-15T03:16:05;97094.41;;;1.24
77355;BMP280;66422;51.202;19.936;2024-01-15T03:31:26;97071.13;;;1.30
77355;BMP280;66422;51.202;19.936;2024-01-15T03:46:45;97050.75;;;1.30
77355;BMP280;66422;51.202;19.936;2024-01-15T04:02:05;97042.35;;;1.41
77355;BMP280;66422;51.202;19.936;2024-01-15T04:17:24;97014.02;;;1.39
77355;BMP280;66422;51.202;19.936;2024-01-15T04:32:44;97008.77;;;1.24
77355;BMP280;66422;51.202;19.936;2024-01-15T04:48:04;96995.73;;;1.30
77355;BMP280;66422;51.202;19.936;2024-01-15T05:03:24;96976.80;;;1.43
77355;BMP280;66422;51.202;19.936;2024-01-15T05:18:43;96962.16;;;1.40
77355;BMP280;66422;51.202;19.936;2024-01-15T05:34:03;96973.09;;;1.31
77355;BMP280;66422;51.202;19.936;2024-01-15T05:49:23;96965.87;;;1.26
77355;BMP280;66422;51.202;19.936;2024-01-15T06:04:43;96972.73;;;1.20
77355;BMP280;66422;51.202;19.936;2024-01-15T06:20:03;96961.28;;;1.31
77355;BMP280;66422;51.202;19.936;2024-01-15T06:35:23;96942.30;;;1.31
77355;BMP280;66422;51.202;19.936;2024-01-15T06:50:43;96946.11;;;1.36
77355;BMP280;66422;51.202;19.936;2024-01-15T07:06:04;96953.45;;;1.45
77355;BMP280;66422;51.202;19.936;2024-01-15T07:21:24;96953.66;;;1.53
77355;BMP280;66422;51.202;19.936;2024-01-15T07:36:44;96971.18;;;1.28
77355;BMP280;66422;51.202;19.936;2024-01-15T07:52:06;96980.39;;;1.05
77355;BMP280;66422;51.202;19.936;2024-01-15T08:07:25;96994.04;;;1.33
77355;BMP280;66422;51.202;19.936;2024-01-15T08:22:45;96997.41;;;1.23
77355;BMP280;66422;51.202;19.936;2024-01-15T08:38:06;97005.83;;;1.18
77355;BMP280;66422;51.202;19.936;2024-01-15T08:53:26;97020.93;;;1.31
77355;BMP280;66422;51.202;19.936;2024-01-15T09:08:46;97028.83;;;1.42
77355;BMP280;66422;51.202;19.936;2024-01-15T09:24:06;97028.41;;;2.16
77355;BMP280;66422;51.202;19.936;2024-01-15T09:39:27;97016.09;;;2.12
77355;BMP280;66422;51.202;19.936;2024-01-15T09:54:47;97013.23;;;3.08
77355;BMP280;66422;51.202;19.936;2024-01-15T10:10:07;96997.09;;;2.47
77355;BMP280;66422;51.202;19.936;2024-01-15T10:25:27;97003.80;;;2.67
77355;BMP280;66422;51.202;19.936;2024-01-15T10:40:47;96999.11;;;2.80
77355;BMP280;66422;51.202;19.936;2024-01-15T10:56:06;96987.94;;;2.73
77355;BMP280;66422;51.202;19.936;2024-01-15T11:11:26;96987.58;;;2.66
77355;BMP280;66422;51.202;19.936;2024-01-15T11:26:46;96979.93;;;2.75
77355;BMP280;66422;51.202;19.936;2024-01-15T11:42:06;96986.35;;;2.63
77355;BMP280;66422;51.202;19.936;2024-01-15T11:57:52;96982.98;;;2.44
77355;BMP280;66422;51.202;19.936;2024-01-15T12:28:32;96982.31;;;2.38
77355;BMP280;66422;51.202;19.936;2024-01-15T12:43:52;96977.94;;;2.36
77355;BMP280;66422;51.202;19.936;2024-01-15T12:59:12;96970.67;;;2.09
77355;BMP280;66422;51.202;19.936;2024-01-15T13:14:31;96963.64;;;2.34
77355;BMP280;66422;51.202;19.936;2024-01-15T13:29:51;96972.43;;;1.94
77355;BMP280;66422;51.202;19.936;2024-01-15T13:45:11;96991.52;;;1.87
77355;BMP280;66422;51.202;19.936;2024-01-15T14:00:33;96994.02;;;1.75
77355;BMP280;66422;51.202;19.936;2024-01-15T14:15:53;96979.20;;;1.77
77355;BMP280;66422;51.202;19.936;2024-01-15T14:31:13;96977.17;;;1.91
77355;BMP280;66422;51.202;19.936;2024-01-15T14:46:32;96983.27;;;1.85
77355;BMP280;66422;51.202;19.936;2024-01-15T15:01:52;96996.88;;;1.49
77355;BMP280;66422;51.202;19.936;2024-01-15T15:17:13;96989.70;;;1.18
77355;BMP280;66422;51.202;19.936;2024-01-15T15:32:33;96982.68;;;1.23
77355;BMP280;66422;51.202;19.936;2024-01-15T15:47:52;96993.95;;;1.17
77355;BMP280;66422;51.202;19.936;2024-01-15T16:03:12;97009.09;;;1.19
77355;BMP280;66422;51.202;19.936;2024-01-15T16:18:32;97017.17;;;1.02
77355;BMP280;66422;51.202;19.936;2024-01-15T16:33:52;97036.75;;;0.85
77355;BMP280;66422;51.202;19.936;2024-01-15T16:49:12;97018.02;;;0.58
77355;BMP280;66422;51.202;19.936;2024-01-15T17:04:32;97024.06;;;0.77
77355;BMP280;66422;51.202;19.936;2024-01-15T17:19:52;97021.07;;;0.83
77355;BMP280;66422;51.202;19.936;2024-01-15T17:35:13;97023.55;;;0.79
77355;BMP280;66422;51.202;19.936;2024-01-15T17:50:33;97033.44;;;0.85
77355;BMP280;66422;51.202;19.936;2024-01-15T18:05:52;97032.79;;;0.77
77355;BMP280;66422;51.202;19.936;2024-01-15T18:21:12;97026.02;;;1.12
77355;BMP280;66422;51.202;19.936;2024-01-15T18:36:32;97032.26;;;1.15
77355;BMP280;66422;51.202;19.936;2024-01-15T18:51:52;97038.25;;;1.15
77355;BMP280;66422;51.202;19.936;2024-01-15T19:07:11;97053.59;;;1.22
77355;BMP280;66422;51.202;19.936;2024-01-15T19:22:31;97057.43;;;1.22
77355;BMP280;66422;51.202;19.936;2024-01-15T19:37:51;97059.70;;;1.00
77355;BMP280;66422;51.202;19.936;2024-01-15T19:53:11;97067.30;;;0.96
77355;BMP280;66422;51.202;19.936;2024-01-15T20:08:31;97090.09;;;1.20
77355;BMP280;66422;51.202;19.936;2024-01-15T20:23:51;97110.07;;;1.39
77355;BMP280;66422;51.202;19.936;2024-01-15T20:39:11;97121.38;;;1.64
77355;BMP280;66422;51.202;19.936;2024-01-15T20:54:31;97138.50;;;1.51
77355;BMP280;66422;51.202;19.936;2024-01-15T22:05:44;97277.55;;;0.93
77355;BMP280;66422;51.202;19.936;2024-01-15T22:21:04;97313.22;;;0.89
77355;BMP280;66422;51.202;19.936;2024-01-15T22:36:25;97342.09;;;0.67
77355;BMP280;66422;51.202;19.936;2024-01-15T22:51:45;97363.70;;;0.57
77355;BMP280;66422;51.202;19.936;2024-01-15T23:07:05;97376.93;;;0.37
77355;BMP280;66422;51.202;19.936;2024-01-15T23:22:24;97380.75;;;0.18
77355;BMP280;66422;51.202;19.936;2024-01-15T23:37:44;97386.88;;;-0.17
77355;BMP280;66422;51.202;19.936;2024-01-15T23:53:04;97407.71;;;-0.23
